Aviation Digital Data Service (ADDS)

Output produced by METARs form (2012 UTC 17 November 2019)
found at http://www.aviationweather.gov/metar/data/
 
METAR text: WBSB 172000Z 13003KT 9000 -TSRA FEW004 FEW015CB BKN150 25/25 Q1010 NOSIG
Conditions at: WBSB (BRUNEI INTL AIRP, MY) observed 2000 UTC 17 November 2019
Temperature: 25.0°C (77°F)
Dewpoint: 25.0°C (77°F) [RH = 100%]
Pressure (altimeter): 29.82 inches Hg (1010.0 mb)
Winds: from the SE (130 degrees) at 3 MPH (3 knots; 1.5 m/s)
Visibility: 6 miles ( 9 km)
Ceiling: 15000 feet AGL
Clouds: few clouds at 400 feet AGL
few clouds at 1500 feet AGL
broken clouds at 15000 feet AGL
Weather: -TSRA  (light rain associated with thunderstorm(s))

METAR text: WBSB 171930Z 32002KT 9000 -RA FEW004 FEW015CB BKN150 25/24 Q1010 RETS NOSIG
Conditions at: WBSB (BRUNEI INTL AIRP, MY) observed 1930 UTC 17 November 2019
Temperature: 25.0°C (77°F)
Dewpoint: 24.0°C (75°F) [RH = 94%]
Pressure (altimeter): 29.82 inches Hg (1010.0 mb)
Winds: from the NW (320 degrees) at 2 MPH (2 knots; 1.0 m/s)
Visibility: 6 miles ( 9 km)
Ceiling: 15000 feet AGL
Clouds: few clouds at 400 feet AGL
few clouds at 1500 feet AGL
broken clouds at 15000 feet AGL
Weather: -RA  (light rain)

METAR text: WBSB 171900Z 25002KT 9000 -TSRA FEW004 FEW015CB BKN150 25/24 Q1010 NOSIG
Conditions at: WBSB (BRUNEI INTL AIRP, MY) observed 1900 UTC 17 November 2019
Temperature: 25.0°C (77°F)
Dewpoint: 24.0°C (75°F) [RH = 94%]
Pressure (altimeter): 29.82 inches Hg (1010.0 mb)
Winds: from the WSW (250 degrees) at 2 MPH (2 knots; 1.0 m/s)
Visibility: 6 miles ( 9 km)
Ceiling: 15000 feet AGL
Clouds: few clouds at 400 feet AGL
few clouds at 1500 feet AGL
broken clouds at 15000 feet AGL
Weather: -TSRA  (light rain associated with thunderstorm(s))

METAR text: WBSB 171830Z 21002KT 9000 -TSRA FEW004 FEW015CB BKN150 25/24 Q1010 NOSIG
Conditions at: WBSB (BRUNEI INTL AIRP, MY) observed 1830 UTC 17 November 2019
Temperature: 25.0°C (77°F)
Dewpoint: 24.0°C (75°F) [RH = 94%]
Pressure (altimeter): 29.82 inches Hg (1010.0 mb)
Winds: from the SSW (210 degrees) at 2 MPH (2 knots; 1.0 m/s)
Visibility: 6 miles ( 9 km)
Ceiling: 15000 feet AGL
Clouds: few clouds at 400 feet AGL
few clouds at 1500 feet AGL
broken clouds at 15000 feet AGL
Weather: -TSRA  (light rain associated with thunderstorm(s))

METAR text: WBSB 171800Z 11003KT 9000 -TSRA FEW004 FEW015CB BKN150 25/24 Q1010 NOSIG
Conditions at: WBSB (BRUNEI INTL AIRP, MY) observed 1800 UTC 17 November 2019
Temperature: 25.0°C (77°F)
Dewpoint: 24.0°C (75°F) [RH = 94%]
Pressure (altimeter): 29.82 inches Hg (1010.0 mb)
Winds: from the ESE (110 degrees) at 3 MPH (3 knots; 1.5 m/s)
Visibility: 6 miles ( 9 km)
Ceiling: 15000 feet AGL
Clouds: few clouds at 400 feet AGL
few clouds at 1500 feet AGL
broken clouds at 15000 feet AGL
Weather: -TSRA  (light rain associated with thunderstorm(s))

METAR text: WBSB 171730Z 06009KT 6000 -TSRA FEW004 FEW015CB BKN150 25/24 Q1011 NOSIG
Conditions at: WBSB (BRUNEI INTL AIRP, MY) observed 1730 UTC 17 November 2019
Temperature: 25.0°C (77°F)
Dewpoint: 24.0°C (75°F) [RH = 94%]
Pressure (altimeter): 29.85 inches Hg (1011.0 mb)
Winds: from the ENE (60 degrees) at 10 MPH (9 knots; 4.6 m/s)
Visibility: 4 miles ( 6 km)
Ceiling: 15000 feet AGL
Clouds: few clouds at 400 feet AGL
few clouds at 1500 feet AGL
broken clouds at 15000 feet AGL
Weather: -TSRA  (light rain associated with thunderstorm(s))

METAR text: WBSB 171700Z 07006KT 4000 -TSRA FEW004 SCT014 FEW015CB BKN150 25/24 Q1011 NOSIG
Conditions at: WBSB (BRUNEI INTL AIRP, MY) observed 1700 UTC 17 November 2019
Temperature: 25.0°C (77°F)
Dewpoint: 24.0°C (75°F) [RH = 94%]
Pressure (altimeter): 29.85 inches Hg (1011.0 mb)
Winds: from the ENE (70 degrees) at 7 MPH (6 knots; 3.1 m/s)
Visibility: 2.49 miles (4.01 km)
Ceiling: 15000 feet AGL
Clouds: few clouds at 400 feet AGL
scattered clouds at 1400 feet AGL
few clouds at 1500 feet AGL
broken clouds at 15000 feet AGL
Weather: -TSRA  (light rain associated with thunderstorm(s))

METAR text: WBSB 171630Z 07005KT 4000 -TSRA SCT014 FEW015CB BKN140 25/24 Q1011 NOSIG
Conditions at: WBSB (BRUNEI INTL AIRP, MY) observed 1630 UTC 17 November 2019
Temperature: 25.0°C (77°F)
Dewpoint: 24.0°C (75°F) [RH = 94%]
Pressure (altimeter): 29.85 inches Hg (1011.0 mb)
Winds: from the ENE (70 degrees) at 6 MPH (5 knots; 2.6 m/s)
Visibility: 2.49 miles (4.01 km)
Ceiling: 14000 feet AGL
Clouds: scattered clouds at 1400 feet AGL
few clouds at 1500 feet AGL
broken clouds at 14000 feet AGL
Weather: -TSRA  (light rain associated with thunderstorm(s))

METAR text: WBSB 171600Z 10008KT 2500 +TSRA SCT014 FEW015CB BKN140 25/24 Q1011 NOSIG
Conditions at: WBSB (BRUNEI INTL AIRP, MY) observed 1600 UTC 17 November 2019
Temperature: 25.0°C (77°F)
Dewpoint: 24.0°C (75°F) [RH = 94%]
Pressure (altimeter): 29.85 inches Hg (1011.0 mb)
Winds: from the E (100 degrees) at 9 MPH (8 knots; 4.1 m/s)
Visibility: 1.55 miles (2.49 km)
Ceiling: 14000 feet AGL
Clouds: scattered clouds at 1400 feet AGL
few clouds at 1500 feet AGL
broken clouds at 14000 feet AGL
Weather: +TSRA  (heavy rain associated with thunderstorm(s))

METAR text: WBSB 171530Z 20005KT 5000 -SHRA SCT014 SCT140 BKN280 26/24 Q1011 TEMPO 5000 TSRA
Conditions at: WBSB (BRUNEI INTL AIRP, MY) observed 1530 UTC 17 November 2019
Temperature: 26.0°C (79°F)
Dewpoint: 24.0°C (75°F) [RH = 89%]
Pressure (altimeter): 29.85 inches Hg (1011.0 mb)
Winds: from the SSW (200 degrees) at 6 MPH (5 knots; 2.6 m/s)
Visibility: 3 miles ( 5 km)
Ceiling: 28000 feet AGL
Clouds: scattered clouds at 1400 feet AGL
scattered clouds at 14000 feet AGL
broken clouds at 28000 feet AGL
Weather: -SHRA  (light rain showers)

METAR text: WBSB 171500Z 26007KT 9000 -SHRA SCT015 SCT140 BKN280 27/25 Q1012 TEMPO 5000 TSRA
Conditions at: WBSB (BRUNEI INTL AIRP, MY) observed 1500 UTC 17 November 2019
Temperature: 27.0°C (81°F)
Dewpoint: 25.0°C (77°F) [RH = 89%]
Pressure (altimeter): 29.88 inches Hg (1012.0 mb)
Winds: from the W (260 degrees) at 8 MPH (7 knots; 3.6 m/s)
Visibility: 6 miles ( 9 km)
Ceiling: 28000 feet AGL
Clouds: scattered clouds at 1500 feet AGL
scattered clouds at 14000 feet AGL
broken clouds at 28000 feet AGL
Weather: -SHRA  (light rain showers)

METAR text: WBSB 171430Z 22004KT 9999 SCT015 SCT140 BKN300 28/26 Q1012 WS ALL RWY TEMPO 5000 TSRA
Conditions at: WBSB (BRUNEI INTL AIRP, MY) observed 1430 UTC 17 November 2019
Temperature: 28.0°C (82°F)
Dewpoint: 26.0°C (79°F) [RH = 89%]
Pressure (altimeter): 29.88 inches Hg (1012.0 mb)
Winds: from the SW (220 degrees) at 5 MPH (4 knots; 2.1 m/s)
Visibility: 6 or more miles (10+ km)
Ceiling: 30000 feet AGL
Clouds: scattered clouds at 1500 feet AGL
scattered clouds at 14000 feet AGL
broken clouds at 30000 feet AGL
Weather: no significant weather observed at this time

METAR text: WBSB 171400Z 30003KT 9999 SCT015 BKN300 28/26 Q1012 NOSIG
Conditions at: WBSB (BRUNEI INTL AIRP, MY) observed 1400 UTC 17 November 2019
Temperature: 28.0°C (82°F)
Dewpoint: 26.0°C (79°F) [RH = 89%]
Pressure (altimeter): 29.88 inches Hg (1012.0 mb)
Winds: from the WNW (300 degrees) at 3 MPH (3 knots; 1.5 m/s)
Visibility: 6 or more miles (10+ km)
Ceiling: 30000 feet AGL
Clouds: scattered clouds at 1500 feet AGL
broken clouds at 30000 feet AGL
Weather: no significant weather observed at this time

METAR text: WBSB 171330Z 27001KT 9999 FEW015 FEW016CB BKN300 28/26 Q1012 NOSIG
Conditions at: WBSB (BRUNEI INTL AIRP, MY) observed 1330 UTC 17 November 2019
Temperature: 28.0°C (82°F)
Dewpoint: 26.0°C (79°F) [RH = 89%]
Pressure (altimeter): 29.88 inches Hg (1012.0 mb)
Winds: from the W (270 degrees) at 1 MPH (1 knots; 0.5 m/s)
Visibility: 6 or more miles (10+ km)
Ceiling: 30000 feet AGL
Clouds: few clouds at 1500 feet AGL
few clouds at 1600 feet AGL
broken clouds at 30000 feet AGL
Weather: no significant weather observed at this time

METAR text: WBSB 171300Z 24001KT 9999 FEW015 FEW016CB BKN300 28/26 Q1012 NOSIG
Conditions at: WBSB (BRUNEI INTL AIRP, MY) observed 1300 UTC 17 November 2019
Temperature: 28.0°C (82°F)
Dewpoint: 26.0°C (79°F) [RH = 89%]
Pressure (altimeter): 29.88 inches Hg (1012.0 mb)
Winds: from the WSW (240 degrees) at 1 MPH (1 knots; 0.5 m/s)
Visibility: 6 or more miles (10+ km)
Ceiling: 30000 feet AGL
Clouds: few clouds at 1500 feet AGL
few clouds at 1600 feet AGL
broken clouds at 30000 feet AGL
Weather: no significant weather observed at this time

METAR text: WBSB 171230Z 27001KT 9999 FEW015 FEW016CB BKN300 28/26 Q1011 NOSIG
Conditions at: WBSB (BRUNEI INTL AIRP, MY) observed 1230 UTC 17 November 2019
Temperature: 28.0°C (82°F)
Dewpoint: 26.0°C (79°F) [RH = 89%]
Pressure (altimeter): 29.85 inches Hg (1011.0 mb)
Winds: from the W (270 degrees) at 1 MPH (1 knots; 0.5 m/s)
Visibility: 6 or more miles (10+ km)
Ceiling: 30000 feet AGL
Clouds: few clouds at 1500 feet AGL
few clouds at 1600 feet AGL
broken clouds at 30000 feet AGL
Weather: no significant weather observed at this time

METAR text: WBSB 171200Z 28002KT 9999 FEW015 BKN300 29/26 Q1011 NOSIG
Conditions at: WBSB (BRUNEI INTL AIRP, MY) observed 1200 UTC 17 November 2019
Temperature: 29.0°C (84°F)
Dewpoint: 26.0°C (79°F) [RH = 84%]
Pressure (altimeter): 29.85 inches Hg (1011.0 mb)
Winds: from the W (280 degrees) at 2 MPH (2 knots; 1.0 m/s)
Visibility: 6 or more miles (10+ km)
Ceiling: 30000 feet AGL
Clouds: few clouds at 1500 feet AGL
broken clouds at 30000 feet AGL
Weather: no significant weather observed at this time

METAR text: WBSB 171130Z 33002KT 9999 FEW015 BKN300 29/26 Q1011 NOSIG
Conditions at: WBSB (BRUNEI INTL AIRP, MY) observed 1130 UTC 17 November 2019
Temperature: 29.0°C (84°F)
Dewpoint: 26.0°C (79°F) [RH = 84%]
Pressure (altimeter): 29.85 inches Hg (1011.0 mb)
Winds: from the NNW (330 degrees) at 2 MPH (2 knots; 1.0 m/s)
Visibility: 6 or more miles (10+ km)
Ceiling: 30000 feet AGL
Clouds: few clouds at 1500 feet AGL
broken clouds at 30000 feet AGL
Weather: no significant weather observed at this time

METAR text: WBSB 171100Z 30001KT 9999 FEW015 BKN300 29/25 Q1010 NOSIG
Conditions at: WBSB (BRUNEI INTL AIRP, MY) observed 1100 UTC 17 November 2019
Temperature: 29.0°C (84°F)
Dewpoint: 25.0°C (77°F) [RH = 79%]
Pressure (altimeter): 29.82 inches Hg (1010.0 mb)
Winds: from the WNW (300 degrees) at 1 MPH (1 knots; 0.5 m/s)
Visibility: 6 or more miles (10+ km)
Ceiling: 30000 feet AGL
Clouds: few clouds at 1500 feet AGL
broken clouds at 30000 feet AGL
Weather: no significant weather observed at this time

METAR text: WBSB 171030Z 30003KT 9999 FEW015 BKN300 30/25 Q1010 NOSIG
Conditions at: WBSB (BRUNEI INTL AIRP, MY) observed 1030 UTC 17 November 2019
Temperature: 30.0°C (86°F)
Dewpoint: 25.0°C (77°F) [RH = 75%]
Pressure (altimeter): 29.82 inches Hg (1010.0 mb)
Winds: from the WNW (300 degrees) at 3 MPH (3 knots; 1.5 m/s)
Visibility: 6 or more miles (10+ km)
Ceiling: 30000 feet AGL
Clouds: few clouds at 1500 feet AGL
broken clouds at 30000 feet AGL
Weather: no significant weather observed at this time

METAR text: WBSB 171000Z 31004KT 9999 FEW016 FEW017CB BKN300 30/25 Q1009 NOSIG
Conditions at: WBSB (BRUNEI INTL AIRP, MY) observed 1000 UTC 17 November 2019
Temperature: 30.0°C (86°F)
Dewpoint: 25.0°C (77°F) [RH = 75%]
Pressure (altimeter): 29.79 inches Hg (1009.0 mb)
Winds: from the NW (310 degrees) at 5 MPH (4 knots; 2.1 m/s)
Visibility: 6 or more miles (10+ km)
Ceiling: 30000 feet AGL
Clouds: few clouds at 1600 feet AGL
few clouds at 1700 feet AGL
broken clouds at 30000 feet AGL
Weather: no significant weather observed at this time

METAR text: WBSB 170930Z 32005KT 9999 FEW016 FEW017CB BKN300 31/24 Q1009 NOSIG
Conditions at: WBSB (BRUNEI INTL AIRP, MY) observed 0930 UTC 17 November 2019
Temperature: 31.0°C (88°F)
Dewpoint: 24.0°C (75°F) [RH = 66%]
Pressure (altimeter): 29.79 inches Hg (1009.0 mb)
Winds: from the NW (320 degrees) at 6 MPH (5 knots; 2.6 m/s)
Visibility: 6 or more miles (10+ km)
Ceiling: 30000 feet AGL
Clouds: few clouds at 1600 feet AGL
few clouds at 1700 feet AGL
broken clouds at 30000 feet AGL
Weather: no significant weather observed at this time

METAR text: WBSB 170900Z 32006KT 9999 FEW016 FEW017CB BKN300 31/24 Q1009 NOSIG
Conditions at: WBSB (BRUNEI INTL AIRP, MY) observed 0900 UTC 17 November 2019
Temperature: 31.0°C (88°F)
Dewpoint: 24.0°C (75°F) [RH = 66%]
Pressure (altimeter): 29.79 inches Hg (1009.0 mb)
Winds: from the NW (320 degrees) at 7 MPH (6 knots; 3.1 m/s)
Visibility: 6 or more miles (10+ km)
Ceiling: 30000 feet AGL
Clouds: few clouds at 1600 feet AGL
few clouds at 1700 feet AGL
broken clouds at 30000 feet AGL
Weather: no significant weather observed at this time

METAR text: WBSB 170830Z 36002KT 9999 FEW016 FEW017CB BKN300 32/24 Q1008 NOSIG
Conditions at: WBSB (BRUNEI INTL AIRP, MY) observed 0830 UTC 17 November 2019
Temperature: 32.0°C (90°F)
Dewpoint: 24.0°C (75°F) [RH = 63%]
Pressure (altimeter): 29.76 inches Hg (1008.0 mb)
Winds: from the N (360 degrees) at 2 MPH (2 knots; 1.0 m/s)
Visibility: 6 or more miles (10+ km)
Ceiling: 30000 feet AGL
Clouds: few clouds at 1600 feet AGL
few clouds at 1700 feet AGL
broken clouds at 30000 feet AGL
Weather: no significant weather observed at this time

METAR text: WBSB 170800Z 35008KT 9999 FEW016 FEW017CB BKN300 32/24 Q1008 NOSIG
Conditions at: WBSB (BRUNEI INTL AIRP, MY) observed 0800 UTC 17 November 2019
Temperature: 32.0°C (90°F)
Dewpoint: 24.0°C (75°F) [RH = 63%]
Pressure (altimeter): 29.76 inches Hg (1008.0 mb)
Winds: from the N (350 degrees) at 9 MPH (8 knots; 4.1 m/s)
Visibility: 6 or more miles (10+ km)
Ceiling: 30000 feet AGL
Clouds: few clouds at 1600 feet AGL
few clouds at 1700 feet AGL
broken clouds at 30000 feet AGL
Weather: no significant weather observed at this time

METAR text: WBSB 170730Z 32008KT 9999 FEW016 FEW017CB SCT300 32/23 Q1008 NOSIG
Conditions at: WBSB (BRUNEI INTL AIRP, MY) observed 0730 UTC 17 November 2019
Temperature: 32.0°C (90°F)
Dewpoint: 23.0°C (73°F) [RH = 59%]
Pressure (altimeter): 29.76 inches Hg (1008.0 mb)
Winds: from the NW (320 degrees) at 9 MPH (8 knots; 4.1 m/s)
Visibility: 6 or more miles (10+ km)
Ceiling: at least 12,000 feet AGL
Clouds: few clouds at 1600 feet AGL
few clouds at 1700 feet AGL
scattered clouds at 30000 feet AGL
Weather: no significant weather observed at this time

METAR text: WBSB 170700Z 31008KT 9999 FEW016 FEW017CB SCT300 31/23 Q1008 NOSIG
Conditions at: WBSB (BRUNEI INTL AIRP, MY) observed 0700 UTC 17 November 2019
Temperature: 31.0°C (88°F)
Dewpoint: 23.0°C (73°F) [RH = 63%]
Pressure (altimeter): 29.76 inches Hg (1008.0 mb)
Winds: from the NW (310 degrees) at 9 MPH (8 knots; 4.1 m/s)
Visibility: 6 or more miles (10+ km)
Ceiling: at least 12,000 feet AGL
Clouds: few clouds at 1600 feet AGL
few clouds at 1700 feet AGL
scattered clouds at 30000 feet AGL
Weather: no significant weather observed at this time

METAR text: WBSB 170630Z 36007KT 9999 FEW016 FEW017CB SCT300 32/23 Q1009 NOSIG
Conditions at: WBSB (BRUNEI INTL AIRP, MY) observed 0630 UTC 17 November 2019
Temperature: 32.0°C (90°F)
Dewpoint: 23.0°C (73°F) [RH = 59%]
Pressure (altimeter): 29.79 inches Hg (1009.0 mb)
Winds: from the N (360 degrees) at 8 MPH (7 knots; 3.6 m/s)
Visibility: 6 or more miles (10+ km)
Ceiling: at least 12,000 feet AGL
Clouds: few clouds at 1600 feet AGL
few clouds at 1700 feet AGL
scattered clouds at 30000 feet AGL
Weather: no significant weather observed at this time

METAR text: WBSB 170600Z 35009KT 9999 FEW016 FEW017CB BKN300 32/23 Q1009 NOSIG
Conditions at: WBSB (BRUNEI INTL AIRP, MY) observed 0600 UTC 17 November 2019
Temperature: 32.0°C (90°F)
Dewpoint: 23.0°C (73°F) [RH = 59%]
Pressure (altimeter): 29.79 inches Hg (1009.0 mb)
Winds: from the N (350 degrees) at 10 MPH (9 knots; 4.6 m/s)
Visibility: 6 or more miles (10+ km)
Ceiling: 30000 feet AGL
Clouds: few clouds at 1600 feet AGL
few clouds at 1700 feet AGL
broken clouds at 30000 feet AGL
Weather: no significant weather observed at this time

METAR text: WBSB 170530Z 33007KT 9999 SCT016 BKN300 32/23 Q1009 NOSIG
Conditions at: WBSB (BRUNEI INTL AIRP, MY) observed 0530 UTC 17 November 2019
Temperature: 32.0°C (90°F)
Dewpoint: 23.0°C (73°F) [RH = 59%]
Pressure (altimeter): 29.79 inches Hg (1009.0 mb)
Winds: from the NNW (330 degrees) at 8 MPH (7 knots; 3.6 m/s)
Visibility: 6 or more miles (10+ km)
Ceiling: 30000 feet AGL
Clouds: scattered clouds at 1600 feet AGL
broken clouds at 30000 feet AGL
Weather: no significant weather observed at this time

METAR text: WBSB 170500Z 32006KT 9999 SCT016 BKN300 32/23 Q1010 NOSIG
Conditions at: WBSB (BRUNEI INTL AIRP, MY) observed 0500 UTC 17 November 2019
Temperature: 32.0°C (90°F)
Dewpoint: 23.0°C (73°F) [RH = 59%]
Pressure (altimeter): 29.82 inches Hg (1010.0 mb)
Winds: from the NW (320 degrees) at 7 MPH (6 knots; 3.1 m/s)
Visibility: 6 or more miles (10+ km)
Ceiling: 30000 feet AGL
Clouds: scattered clouds at 1600 feet AGL
broken clouds at 30000 feet AGL
Weather: no significant weather observed at this time

METAR text: WBSB 170430Z 34005KT 9999 SCT016 BKN300 32/22 Q1010 NOSIG
Conditions at: WBSB (BRUNEI INTL AIRP, MY) observed 0430 UTC 17 November 2019
Temperature: 32.0°C (90°F)
Dewpoint: 22.0°C (72°F) [RH = 56%]
Pressure (altimeter): 29.82 inches Hg (1010.0 mb)
Winds: from the NNW (340 degrees) at 6 MPH (5 knots; 2.6 m/s)
Visibility: 6 or more miles (10+ km)
Ceiling: 30000 feet AGL
Clouds: scattered clouds at 1600 feet AGL
broken clouds at 30000 feet AGL
Weather: no significant weather observed at this time

METAR text: WBSB 170400Z 33004KT 9999 SCT016 BKN300 32/24 Q1010 NOSIG
Conditions at: WBSB (BRUNEI INTL AIRP, MY) observed 0400 UTC 17 November 2019
Temperature: 32.0°C (90°F)
Dewpoint: 24.0°C (75°F) [RH = 63%]
Pressure (altimeter): 29.82 inches Hg (1010.0 mb)
Winds: from the NNW (330 degrees) at 5 MPH (4 knots; 2.1 m/s)
Visibility: 6 or more miles (10+ km)
Ceiling: 30000 feet AGL
Clouds: scattered clouds at 1600 feet AGL
broken clouds at 30000 feet AGL
Weather: no significant weather observed at this time

METAR text: WBSB 170330Z 27001KT 9999 SCT016 BKN300 32/24 Q1011 NOSIG
Conditions at: WBSB (BRUNEI INTL AIRP, MY) observed 0330 UTC 17 November 2019
Temperature: 32.0°C (90°F)
Dewpoint: 24.0°C (75°F) [RH = 63%]
Pressure (altimeter): 29.85 inches Hg (1011.0 mb)
Winds: from the W (270 degrees) at 1 MPH (1 knots; 0.5 m/s)
Visibility: 6 or more miles (10+ km)
Ceiling: 30000 feet AGL
Clouds: scattered clouds at 1600 feet AGL
broken clouds at 30000 feet AGL
Weather: no significant weather observed at this time

METAR text: WBSB 170300Z 27003KT 9999 FEW016 BKN300 32/24 Q1011 NOSIG
Conditions at: WBSB (BRUNEI INTL AIRP, MY) observed 0300 UTC 17 November 2019
Temperature: 32.0°C (90°F)
Dewpoint: 24.0°C (75°F) [RH = 63%]
Pressure (altimeter): 29.85 inches Hg (1011.0 mb)
Winds: from the W (270 degrees) at 3 MPH (3 knots; 1.5 m/s)
Visibility: 6 or more miles (10+ km)
Ceiling: 30000 feet AGL
Clouds: few clouds at 1600 feet AGL
broken clouds at 30000 feet AGL
Weather: no significant weather observed at this time

METAR text: WBSB 170230Z 12002KT 9999 FEW016 SCT140 BKN300 31/25 Q1011 NOSIG
Conditions at: WBSB (BRUNEI INTL AIRP, MY) observed 0230 UTC 17 November 2019
Temperature: 31.0°C (88°F)
Dewpoint: 25.0°C (77°F) [RH = 71%]
Pressure (altimeter): 29.85 inches Hg (1011.0 mb)
Winds: from the ESE (120 degrees) at 2 MPH (2 knots; 1.0 m/s)
Visibility: 6 or more miles (10+ km)
Ceiling: 30000 feet AGL
Clouds: few clouds at 1600 feet AGL
scattered clouds at 14000 feet AGL
broken clouds at 30000 feet AGL
Weather: no significant weather observed at this time

METAR text: WBSB 170200Z 17002KT 9999 FEW016 SCT140 BKN300 30/25 Q1012 NOSIG
Conditions at: WBSB (BRUNEI INTL AIRP, MY) observed 0200 UTC 17 November 2019
Temperature: 30.0°C (86°F)
Dewpoint: 25.0°C (77°F) [RH = 75%]
Pressure (altimeter): 29.88 inches Hg (1012.0 mb)
Winds: from the S (170 degrees) at 2 MPH (2 knots; 1.0 m/s)
Visibility: 6 or more miles (10+ km)
Ceiling: 30000 feet AGL
Clouds: few clouds at 1600 feet AGL
scattered clouds at 14000 feet AGL
broken clouds at 30000 feet AGL
Weather: no significant weather observed at this time

METAR text: WBSB 170130Z 24003KT 9999 FEW015 SCT140 BKN300 29/25 Q1012 NOSIG
Conditions at: WBSB (BRUNEI INTL AIRP, MY) observed 0130 UTC 17 November 2019
Temperature: 29.0°C (84°F)
Dewpoint: 25.0°C (77°F) [RH = 79%]
Pressure (altimeter): 29.88 inches Hg (1012.0 mb)
Winds: from the WSW (240 degrees) at 3 MPH (3 knots; 1.5 m/s)
Visibility: 6 or more miles (10+ km)
Ceiling: 30000 feet AGL
Clouds: few clouds at 1500 feet AGL
scattered clouds at 14000 feet AGL
broken clouds at 30000 feet AGL
Weather: no significant weather observed at this time

METAR text: WBSB 170100Z 18002KT 9999 FEW015 FEW016CB BKN140 27/25 Q1012 NOSIG
Conditions at: WBSB (BRUNEI INTL AIRP, MY) observed 0100 UTC 17 November 2019
Temperature: 27.0°C (81°F)
Dewpoint: 25.0°C (77°F) [RH = 89%]
Pressure (altimeter): 29.88 inches Hg (1012.0 mb)
Winds: from the S (180 degrees) at 2 MPH (2 knots; 1.0 m/s)
Visibility: 6 or more miles (10+ km)
Ceiling: 14000 feet AGL
Clouds: few clouds at 1500 feet AGL
few clouds at 1600 feet AGL
broken clouds at 14000 feet AGL
Weather: no significant weather observed at this time

METAR text: WBSB 170030Z 18002KT 9999 FEW015 FEW016CB BKN140 27/25 Q1012 NOSIG
Conditions at: WBSB (BRUNEI INTL AIRP, MY) observed 0030 UTC 17 November 2019
Temperature: 27.0°C (81°F)
Dewpoint: 25.0°C (77°F) [RH = 89%]
Pressure (altimeter): 29.88 inches Hg (1012.0 mb)
Winds: from the S (180 degrees) at 2 MPH (2 knots; 1.0 m/s)
Visibility: 6 or more miles (10+ km)
Ceiling: 14000 feet AGL
Clouds: few clouds at 1500 feet AGL
few clouds at 1600 feet AGL
broken clouds at 14000 feet AGL
Weather: no significant weather observed at this time

METAR text: WBSB 170000Z 23002KT 9999 FEW014 FEW015CB BKN140 26/25 Q1012 NOSIG
Conditions at: WBSB (BRUNEI INTL AIRP, MY) observed 0000 UTC 17 November 2019
Temperature: 26.0°C (79°F)
Dewpoint: 25.0°C (77°F) [RH = 94%]
Pressure (altimeter): 29.88 inches Hg (1012.0 mb)
Winds: from the SW (230 degrees) at 2 MPH (2 knots; 1.0 m/s)
Visibility: 6 or more miles (10+ km)
Ceiling: 14000 feet AGL
Clouds: few clouds at 1400 feet AGL
few clouds at 1500 feet AGL
broken clouds at 14000 feet AGL
Weather: no significant weather observed at this time

METAR text: WBSB 162330Z 21003KT 9999 FEW005 BKN140 26/25 Q1012 NOSIG
Conditions at: WBSB (BRUNEI INTL AIRP, MY) observed 2330 UTC 16 November 2019
Temperature: 26.0°C (79°F)
Dewpoint: 25.0°C (77°F) [RH = 94%]
Pressure (altimeter): 29.88 inches Hg (1012.0 mb)
Winds: from the SSW (210 degrees) at 3 MPH (3 knots; 1.5 m/s)
Visibility: 6 or more miles (10+ km)
Ceiling: 14000 feet AGL
Clouds: few clouds at 500 feet AGL
broken clouds at 14000 feet AGL
Weather: no significant weather observed at this time

METAR text: WBSB 162300Z 22003KT 9999 FEW005 BKN140 26/25 Q1011 NOSIG
Conditions at: WBSB (BRUNEI INTL AIRP, MY) observed 2300 UTC 16 November 2019
Temperature: 26.0°C (79°F)
Dewpoint: 25.0°C (77°F) [RH = 94%]
Pressure (altimeter): 29.85 inches Hg (1011.0 mb)
Winds: from the SW (220 degrees) at 3 MPH (3 knots; 1.5 m/s)
Visibility: 6 or more miles (10+ km)
Ceiling: 14000 feet AGL
Clouds: few clouds at 500 feet AGL
broken clouds at 14000 feet AGL
Weather: no significant weather observed at this time

METAR text: WBSB 162230Z 22003KT 9999 FEW005 BKN140 26/25 Q1011 NOSIG
Conditions at: WBSB (BRUNEI INTL AIRP, MY) observed 2230 UTC 16 November 2019
Temperature: 26.0°C (79°F)
Dewpoint: 25.0°C (77°F) [RH = 94%]
Pressure (altimeter): 29.85 inches Hg (1011.0 mb)
Winds: from the SW (220 degrees) at 3 MPH (3 knots; 1.5 m/s)
Visibility: 6 or more miles (10+ km)
Ceiling: 14000 feet AGL
Clouds: few clouds at 500 feet AGL
broken clouds at 14000 feet AGL
Weather: no significant weather observed at this time

METAR text: WBSB 162200Z 24003KT 9999 FEW003 BKN140 25/25 Q1010 NOSIG
Conditions at: WBSB (BRUNEI INTL AIRP, MY) observed 2200 UTC 16 November 2019
Temperature: 25.0°C (77°F)
Dewpoint: 25.0°C (77°F) [RH = 100%]
Pressure (altimeter): 29.82 inches Hg (1010.0 mb)
Winds: from the WSW (240 degrees) at 3 MPH (3 knots; 1.5 m/s)
Visibility: 6 or more miles (10+ km)
Ceiling: 14000 feet AGL
Clouds: few clouds at 300 feet AGL
broken clouds at 14000 feet AGL
Weather: no significant weather observed at this time

METAR text: WBSB 162130Z 21002KT 9999 FEW003 BKN140 25/25 Q1010 NOSIG
Conditions at: WBSB (BRUNEI INTL AIRP, MY) observed 2130 UTC 16 November 2019
Temperature: 25.0°C (77°F)
Dewpoint: 25.0°C (77°F) [RH = 100%]
Pressure (altimeter): 29.82 inches Hg (1010.0 mb)
Winds: from the SSW (210 degrees) at 2 MPH (2 knots; 1.0 m/s)
Visibility: 6 or more miles (10+ km)
Ceiling: 14000 feet AGL
Clouds: few clouds at 300 feet AGL
broken clouds at 14000 feet AGL
Weather: no significant weather observed at this time

METAR text: WBSB 162100Z 19004KT 9999 FEW003 BKN140 25/25 Q1010 NOSIG
Conditions at: WBSB (BRUNEI INTL AIRP, MY) observed 2100 UTC 16 November 2019
Temperature: 25.0°C (77°F)
Dewpoint: 25.0°C (77°F) [RH = 100%]
Pressure (altimeter): 29.82 inches Hg (1010.0 mb)
Winds: from the S (190 degrees) at 5 MPH (4 knots; 2.1 m/s)
Visibility: 6 or more miles (10+ km)
Ceiling: 14000 feet AGL
Clouds: few clouds at 300 feet AGL
broken clouds at 14000 feet AGL
Weather: no significant weather observed at this time

METAR text: WBSB 162030Z 22002KT 9999 FEW003 BKN140 25/25 Q1010 NOSIG
Conditions at: WBSB (BRUNEI INTL AIRP, MY) observed 2030 UTC 16 November 2019
Temperature: 25.0°C (77°F)
Dewpoint: 25.0°C (77°F) [RH = 100%]
Pressure (altimeter): 29.82 inches Hg (1010.0 mb)
Winds: from the SW (220 degrees) at 2 MPH (2 knots; 1.0 m/s)
Visibility: 6 or more miles (10+ km)
Ceiling: 14000 feet AGL
Clouds: few clouds at 300 feet AGL
broken clouds at 14000 feet AGL
Weather: no significant weather observed at this time

METAR text: WBSB 162000Z 16003KT 9999 FEW003 BKN140 25/24 Q1010 NOSIG
Conditions at: WBSB (BRUNEI INTL AIRP, MY) observed 2000 UTC 16 November 2019
Temperature: 25.0°C (77°F)
Dewpoint: 24.0°C (75°F) [RH = 94%]
Pressure (altimeter): 29.82 inches Hg (1010.0 mb)
Winds: from the SSE (160 degrees) at 3 MPH (3 knots; 1.5 m/s)
Visibility: 6 or more miles (10+ km)
Ceiling: 14000 feet AGL
Clouds: few clouds at 300 feet AGL
broken clouds at 14000 feet AGL
Weather: no significant weather observed at this time

METAR text: WBSB 161930Z 16003KT 9999 FEW003 BKN140 25/24 Q1010 NOSIG
Conditions at: WBSB (BRUNEI INTL AIRP, MY) observed 1930 UTC 16 November 2019
Temperature: 25.0°C (77°F)
Dewpoint: 24.0°C (75°F) [RH = 94%]
Pressure (altimeter): 29.82 inches Hg (1010.0 mb)
Winds: from the SSE (160 degrees) at 3 MPH (3 knots; 1.5 m/s)
Visibility: 6 or more miles (10+ km)
Ceiling: 14000 feet AGL
Clouds: few clouds at 300 feet AGL
broken clouds at 14000 feet AGL
Weather: no significant weather observed at this time

METAR text: WBSB 161900Z 14002KT 9999 FEW014 BKN140 25/24 Q1010 NOSIG
Conditions at: WBSB (BRUNEI INTL AIRP, MY) observed 1900 UTC 16 November 2019
Temperature: 25.0°C (77°F)
Dewpoint: 24.0°C (75°F) [RH = 94%]
Pressure (altimeter): 29.82 inches Hg (1010.0 mb)
Winds: from the SE (140 degrees) at 2 MPH (2 knots; 1.0 m/s)
Visibility: 6 or more miles (10+ km)
Ceiling: 14000 feet AGL
Clouds: few clouds at 1400 feet AGL
broken clouds at 14000 feet AGL
Weather: no significant weather observed at this time

METAR text: WBSB 161830Z 18003KT 9999 FEW014 BKN140 25/24 Q1010 NOSIG
Conditions at: WBSB (BRUNEI INTL AIRP, MY) observed 1830 UTC 16 November 2019
Temperature: 25.0°C (77°F)
Dewpoint: 24.0°C (75°F) [RH = 94%]
Pressure (altimeter): 29.82 inches Hg (1010.0 mb)
Winds: from the S (180 degrees) at 3 MPH (3 knots; 1.5 m/s)
Visibility: 6 or more miles (10+ km)
Ceiling: 14000 feet AGL
Clouds: few clouds at 1400 feet AGL
broken clouds at 14000 feet AGL
Weather: no significant weather observed at this time

METAR text: WBSB 161800Z 16003KT 9999 FEW014 BKN140 25/24 Q1010 NOSIG
Conditions at: WBSB (BRUNEI INTL AIRP, MY) observed 1800 UTC 16 November 2019
Temperature: 25.0°C (77°F)
Dewpoint: 24.0°C (75°F) [RH = 94%]
Pressure (altimeter): 29.82 inches Hg (1010.0 mb)
Winds: from the SSE (160 degrees) at 3 MPH (3 knots; 1.5 m/s)
Visibility: 6 or more miles (10+ km)
Ceiling: 14000 feet AGL
Clouds: few clouds at 1400 feet AGL
broken clouds at 14000 feet AGL
Weather: no significant weather observed at this time

METAR text: WBSB 161730Z 27001KT 9999 FEW014 BKN140 25/24 Q1011 NOSIG
Conditions at: WBSB (BRUNEI INTL AIRP, MY) observed 1730 UTC 16 November 2019
Temperature: 25.0°C (77°F)
Dewpoint: 24.0°C (75°F) [RH = 94%]
Pressure (altimeter): 29.85 inches Hg (1011.0 mb)
Winds: from the W (270 degrees) at 1 MPH (1 knots; 0.5 m/s)
Visibility: 6 or more miles (10+ km)
Ceiling: 14000 feet AGL
Clouds: few clouds at 1400 feet AGL
broken clouds at 14000 feet AGL
Weather: no significant weather observed at this time

METAR text: WBSB 161700Z 17002KT 9999 FEW014 BKN140 25/24 Q1011 NOSIG
Conditions at: WBSB (BRUNEI INTL AIRP, MY) observed 1700 UTC 16 November 2019
Temperature: 25.0°C (77°F)
Dewpoint: 24.0°C (75°F) [RH = 94%]
Pressure (altimeter): 29.85 inches Hg (1011.0 mb)
Winds: from the S (170 degrees) at 2 MPH (2 knots; 1.0 m/s)
Visibility: 6 or more miles (10+ km)
Ceiling: 14000 feet AGL
Clouds: few clouds at 1400 feet AGL
broken clouds at 14000 feet AGL
Weather: no significant weather observed at this time

METAR text: WBSB 161630Z 10001KT 9999 FEW014 BKN140 25/24 Q1011 NOSIG
Conditions at: WBSB (BRUNEI INTL AIRP, MY) observed 1630 UTC 16 November 2019
Temperature: 25.0°C (77°F)
Dewpoint: 24.0°C (75°F) [RH = 94%]
Pressure (altimeter): 29.85 inches Hg (1011.0 mb)
Winds: from the E (100 degrees) at 1 MPH (1 knots; 0.5 m/s)
Visibility: 6 or more miles (10+ km)
Ceiling: 14000 feet AGL
Clouds: few clouds at 1400 feet AGL
broken clouds at 14000 feet AGL
Weather: no significant weather observed at this time

METAR text: WBSB 161600Z 19001KT 9999 FEW014 BKN140 25/24 Q1012 NOSIG
Conditions at: WBSB (BRUNEI INTL AIRP, MY) observed 1600 UTC 16 November 2019
Temperature: 25.0°C (77°F)
Dewpoint: 24.0°C (75°F) [RH = 94%]
Pressure (altimeter): 29.88 inches Hg (1012.0 mb)
Winds: from the S (190 degrees) at 1 MPH (1 knots; 0.5 m/s)
Visibility: 6 or more miles (10+ km)
Ceiling: 14000 feet AGL
Clouds: few clouds at 1400 feet AGL
broken clouds at 14000 feet AGL
Weather: no significant weather observed at this time

METAR text: WBSB 161530Z 19003KT 9999 FEW014 BKN140 25/24 Q1012 NOSIG
Conditions at: WBSB (BRUNEI INTL AIRP, MY) observed 1530 UTC 16 November 2019
Temperature: 25.0°C (77°F)
Dewpoint: 24.0°C (75°F) [RH = 94%]
Pressure (altimeter): 29.88 inches Hg (1012.0 mb)
Winds: from the S (190 degrees) at 3 MPH (3 knots; 1.5 m/s)
Visibility: 6 or more miles (10+ km)
Ceiling: 14000 feet AGL
Clouds: few clouds at 1400 feet AGL
broken clouds at 14000 feet AGL
Weather: no significant weather observed at this time

METAR text: WBSB 161500Z 25002KT 9999 FEW014 BKN140 26/24 Q1012 NOSIG
Conditions at: WBSB (BRUNEI INTL AIRP, MY) observed 1500 UTC 16 November 2019
Temperature: 26.0°C (79°F)
Dewpoint: 24.0°C (75°F) [RH = 89%]
Pressure (altimeter): 29.88 inches Hg (1012.0 mb)
Winds: from the WSW (250 degrees) at 2 MPH (2 knots; 1.0 m/s)
Visibility: 6 or more miles (10+ km)
Ceiling: 14000 feet AGL
Clouds: few clouds at 1400 feet AGL
broken clouds at 14000 feet AGL
Weather: no significant weather observed at this time

METAR text: WBSB 161430Z 23002KT 9999 FEW014 BKN140 25/24 Q1012 NOSIG
Conditions at: WBSB (BRUNEI INTL AIRP, MY) observed 1430 UTC 16 November 2019
Temperature: 25.0°C (77°F)
Dewpoint: 24.0°C (75°F) [RH = 94%]
Pressure (altimeter): 29.88 inches Hg (1012.0 mb)
Winds: from the SW (230 degrees) at 2 MPH (2 knots; 1.0 m/s)
Visibility: 6 or more miles (10+ km)
Ceiling: 14000 feet AGL
Clouds: few clouds at 1400 feet AGL
broken clouds at 14000 feet AGL
Weather: no significant weather observed at this time

METAR text: WBSB 161400Z 18006KT 9999 FEW014 SCT140 BKN280 25/24 Q1012 NOSIG
Conditions at: WBSB (BRUNEI INTL AIRP, MY) observed 1400 UTC 16 November 2019
Temperature: 25.0°C (77°F)
Dewpoint: 24.0°C (75°F) [RH = 94%]
Pressure (altimeter): 29.88 inches Hg (1012.0 mb)
Winds: from the S (180 degrees) at 7 MPH (6 knots; 3.1 m/s)
Visibility: 6 or more miles (10+ km)
Ceiling: 28000 feet AGL
Clouds: few clouds at 1400 feet AGL
scattered clouds at 14000 feet AGL
broken clouds at 28000 feet AGL
Weather: no significant weather observed at this time

METAR text: WBSB 161300Z 16005KT 9999 FEW015 SCT140 BKN280 26/24 Q1012 NOSIG
Conditions at: WBSB (BRUNEI INTL AIRP, MY) observed 1300 UTC 16 November 2019
Temperature: 26.0°C (79°F)
Dewpoint: 24.0°C (75°F) [RH = 89%]
Pressure (altimeter): 29.88 inches Hg (1012.0 mb)
Winds: from the SSE (160 degrees) at 6 MPH (5 knots; 2.6 m/s)
Visibility: 6 or more miles (10+ km)
Ceiling: 28000 feet AGL
Clouds: few clouds at 1500 feet AGL
scattered clouds at 14000 feet AGL
broken clouds at 28000 feet AGL
Weather: no significant weather observed at this time

METAR text: WBSB 161230Z 15005KT 9999 FEW015 SCT140 BKN280 26/24 Q1012 NOSIG
Conditions at: WBSB (BRUNEI INTL AIRP, MY) observed 1230 UTC 16 November 2019
Temperature: 26.0°C (79°F)
Dewpoint: 24.0°C (75°F) [RH = 89%]
Pressure (altimeter): 29.88 inches Hg (1012.0 mb)
Winds: from the SSE (150 degrees) at 6 MPH (5 knots; 2.6 m/s)
Visibility: 6 or more miles (10+ km)
Ceiling: 28000 feet AGL
Clouds: few clouds at 1500 feet AGL
scattered clouds at 14000 feet AGL
broken clouds at 28000 feet AGL
Weather: no significant weather observed at this time

METAR text: WBSB 161200Z 15003KT 9999 FEW015 SCT140 BKN280 27/24 Q1011 RETS NOSIG
Conditions at: WBSB (BRUNEI INTL AIRP, MY) observed 1200 UTC 16 November 2019
Temperature: 27.0°C (81°F)
Dewpoint: 24.0°C (75°F) [RH = 84%]
Pressure (altimeter): 29.85 inches Hg (1011.0 mb)
Winds: from the SSE (150 degrees) at 3 MPH (3 knots; 1.5 m/s)
Visibility: 6 or more miles (10+ km)
Ceiling: 28000 feet AGL
Clouds: few clouds at 1500 feet AGL
scattered clouds at 14000 feet AGL
broken clouds at 28000 feet AGL
Weather: no significant weather observed at this time

METAR text: WBSB 161130Z 15006KT 9999 FEW015 FEW016CB BKN140 27/24 Q1011 RETS NOSIG
Conditions at: WBSB (BRUNEI INTL AIRP, MY) observed 1130 UTC 16 November 2019
Temperature: 27.0°C (81°F)
Dewpoint: 24.0°C (75°F) [RH = 84%]
Pressure (altimeter): 29.85 inches Hg (1011.0 mb)
Winds: from the SSE (150 degrees) at 7 MPH (6 knots; 3.1 m/s)
Visibility: 6 or more miles (10+ km)
Ceiling: 14000 feet AGL
Clouds: few clouds at 1500 feet AGL
few clouds at 1600 feet AGL
broken clouds at 14000 feet AGL
Weather: no significant weather observed at this time

METAR text: WBSB 161100Z 14007KT 9999 TS SCT015 FEW016CB BKN140 27/24 Q1011 TEMPO 5000 TSRA
Conditions at: WBSB (BRUNEI INTL AIRP, MY) observed 1100 UTC 16 November 2019
Temperature: 27.0°C (81°F)
Dewpoint: 24.0°C (75°F) [RH = 84%]
Pressure (altimeter): 29.85 inches Hg (1011.0 mb)
Winds: from the SE (140 degrees) at 8 MPH (7 knots; 3.6 m/s)
Visibility: 6 or more miles (10+ km)
Ceiling: 14000 feet AGL
Clouds: scattered clouds at 1500 feet AGL
few clouds at 1600 feet AGL
broken clouds at 14000 feet AGL
Weather: TS  (thunderstorm)

METAR text: WBSB 161030Z 20004KT 9999 TS SCT015 FEW016CB BKN140 28/25 Q1011 TEMPO 5000 TSRA
Conditions at: WBSB (BRUNEI INTL AIRP, MY) observed 1030 UTC 16 November 2019
Temperature: 28.0°C (82°F)
Dewpoint: 25.0°C (77°F) [RH = 84%]
Pressure (altimeter): 29.85 inches Hg (1011.0 mb)
Winds: from the SSW (200 degrees) at 5 MPH (4 knots; 2.1 m/s)
Visibility: 6 or more miles (10+ km)
Ceiling: 14000 feet AGL
Clouds: scattered clouds at 1500 feet AGL
few clouds at 1600 feet AGL
broken clouds at 14000 feet AGL
Weather: TS  (thunderstorm)

METAR text: WBSB 161000Z 19006KT 9999 TS SCT015 FEW016CB BKN140 29/25 Q1010 TEMPO 5000 TSRA
Conditions at: WBSB (BRUNEI INTL AIRP, MY) observed 1000 UTC 16 November 2019
Temperature: 29.0°C (84°F)
Dewpoint: 25.0°C (77°F) [RH = 79%]
Pressure (altimeter): 29.82 inches Hg (1010.0 mb)
Winds: from the S (190 degrees) at 7 MPH (6 knots; 3.1 m/s)
Visibility: 6 or more miles (10+ km)
Ceiling: 14000 feet AGL
Clouds: scattered clouds at 1500 feet AGL
few clouds at 1600 feet AGL
broken clouds at 14000 feet AGL
Weather: TS  (thunderstorm)

METAR text: WBSB 160930Z 25004KT 9999 TS SCT015 FEW016CB SCT140 BKN280 29/24 Q1009 TEMPO 5000 TSRA
Conditions at: WBSB (BRUNEI INTL AIRP, MY) observed 0930 UTC 16 November 2019
Temperature: 29.0°C (84°F)
Dewpoint: 24.0°C (75°F) [RH = 74%]
Pressure (altimeter): 29.79 inches Hg (1009.0 mb)
Winds: from the WSW (250 degrees) at 5 MPH (4 knots; 2.1 m/s)
Visibility: 6 or more miles (10+ km)
Ceiling: 28000 feet AGL
Clouds: scattered clouds at 1500 feet AGL
few clouds at 1600 feet AGL
scattered clouds at 14000 feet AGL
broken clouds at 28000 feet AGL
Weather: TS  (thunderstorm)

METAR text: WBSB 160900Z 29003KT 9999 SCT015 FEW016CB BKN280 30/24 Q1009 NOSIG
Conditions at: WBSB (BRUNEI INTL AIRP, MY) observed 0900 UTC 16 November 2019
Temperature: 30.0°C (86°F)
Dewpoint: 24.0°C (75°F) [RH = 70%]
Pressure (altimeter): 29.79 inches Hg (1009.0 mb)
Winds: from the WNW (290 degrees) at 3 MPH (3 knots; 1.5 m/s)
Visibility: 6 or more miles (10+ km)
Ceiling: 28000 feet AGL
Clouds: scattered clouds at 1500 feet AGL
few clouds at 1600 feet AGL
broken clouds at 28000 feet AGL
Weather: no significant weather observed at this time

METAR text: WBSB 160830Z 32006KT 9999 SCT015 FEW016CB BKN280 32/24 Q1009 NOSIG
Conditions at: WBSB (BRUNEI INTL AIRP, MY) observed 0830 UTC 16 November 2019
Temperature: 32.0°C (90°F)
Dewpoint: 24.0°C (75°F) [RH = 63%]
Pressure (altimeter): 29.79 inches Hg (1009.0 mb)
Winds: from the NW (320 degrees) at 7 MPH (6 knots; 3.1 m/s)
Visibility: 6 or more miles (10+ km)
Ceiling: 28000 feet AGL
Clouds: scattered clouds at 1500 feet AGL
few clouds at 1600 feet AGL
broken clouds at 28000 feet AGL
Weather: no significant weather observed at this time

Forecast for: WBSB (BRUNEI INTL AIRP, MY)
Text: TAF WBSB 171650Z 1718/1900 18003KT 9999 SCT015 FEW015CB
Forecast period: 1800 UTC 17 November 2019 to 0000 UTC 18 November 2019
Forecast type: FROM: standard forecast or significant change
Winds: from the S (180 degrees) at 3 MPH (3 knots; 1.5 m/s)
Visibility: 6 or more miles 10+ km)
Ceiling: at least 12,000 feet AGL
Clouds: scattered clouds at 1500 feet AGL
few clouds at 1500 feet AGL
Weather: no significant weather forecast for this period
Text: TEMPO 1718/1722 4000 TSRA
Forecast period: 1800 to 2200 UTC 17 November 2019
Forecast type: TEMPORARY: The following changes expected for less than half the time period
Visibility: 2.49 miles (4.01 km)
Ceiling: unknown
Clouds: missing
Weather: TSRA  (rain associated with thunderstorm(s))
Text: BECMG 1800/1802 34006KT FEW016
Forecast period: 0000 UTC 18 November 2019 to 0000 UTC 19 November 2019
Forecast type: BECOMING: Conditions expected to become as follows by 0200 UTC 18 November 2019
Winds: from the NNW (340 degrees) at 7 MPH (6 knots; 3.1 m/s)
Visibility: 6 or more miles 10+ km)
Ceiling: at least 12,000 feet AGL
Clouds: few clouds at 1600 feet AGL
Weather: no significant weather forecast for this period